Time;durP1;ratioP1;P1;durP2;ratioP2;P2;SDS_P1;SDS_P2;PMS_P1;PMS_P2;Temp;Humidity;BMP_temperature;BMP_pressure;BME280_temperature;BME280_humidity;BME280_pressure;Samples;Min_cycle;Max_cycle;Signal;HPM_P1;HPM_P2
2021/04/30 00:01:16;;;;;;;103.85;53.10;;;5.30;99.90;;;;;;5068272;28;20058;-73
2021/04/30 00:03:42;;;;;;;115.93;58.53;;;5.20;99.90;;;;;;5067380;28;20439;-74
2021/04/30 00:06:08;;;;;;;87.93;47.20;;;5.20;99.90;;;;;;5069575;28;20055;-74
2021/04/30 00:08:37;;;;;;;112.47;58.38;;;5.20;99.90;;;;;;5055672;28;20671;-74
2021/04/30 00:11:04;;;;;;;104.72;53.47;;;5.20;99.90;;;;;;5069225;28;20051;-73
2021/04/30 00:13:30;;;;;;;120.65;59.55;;;5.20;99.90;;;;;;5070446;28;20310;-73
2021/04/30 00:15:56;;;;;;;114.45;61.63;;;5.20;99.90;;;;;;5069559;28;20131;-73
2021/04/30 00:18:23;;;;;;;120.40;61.60;;;5.30;99.90;;;;;;5068906;28;20070;-74
2021/04/30 00:20:55;;;;;;;128.88;64.30;;;5.20;99.90;;;;;;5035493;28;20067;-73
2021/04/30 00:23:26;;;;;;;121.72;60.50;;;5.20;99.90;;;;;;5049848;28;20120;-74
2021/04/30 00:25:54;;;;;;;118.85;61.13;;;5.30;99.90;;;;;;5049666;28;20127;-73
2021/04/30 00:28:21;;;;;;;125.78;61.58;;;5.30;99.90;;;;;;5069360;28;20056;-75
2021/04/30 00:30:47;;;;;;;124.93;63.20;;;5.30;99.90;;;;;;5036346;28;20052;-75
2021/04/30 00:33:14;;;;;;;146.80;68.30;;;5.20;99.90;;;;;;5068293;28;20501;-74
2021/04/30 00:35:44;;;;;;;134.48;65.72;;;5.30;99.90;;;;;;5067518;28;20128;-74
2021/04/30 00:38:11;;;;;;;115.07;58.42;;;5.30;99.90;;;;;;5074983;28;20123;-74
2021/04/30 00:40:38;;;;;;;155.63;69.82;;;5.30;99.90;;;;;;5081533;28;20135;-75
2021/04/30 00:43:04;;;;;;;146.20;65.13;;;5.30;99.90;;;;;;5077743;28;20060;-73
2021/04/30 00:45:31;;;;;;;135.32;63.08;;;5.40;99.90;;;;;;5066949;27;20041;-74
2021/04/30 00:47:58;;;;;;;127.55;61.55;;;5.30;99.90;;;;;;5068245;28;20156;-74
2021/04/30 00:50:27;;;;;;;105.70;51.60;;;5.30;99.90;;;;;;5066271;28;20052;-73
2021/04/30 00:52:54;;;;;;;125.55;60.17;;;5.30;99.90;;;;;;5048312;28;20540;-74
2021/04/30 00:55:21;;;;;;;111.45;56.38;;;5.30;99.90;;;;;;5047438;28;20049;-73
2021/04/30 00:57:54;;;;;;;135.40;66.90;;;5.30;99.90;;;;;;5063104;28;20048;-74
2021/04/30 01:00:22;;;;;;;127.13;61.75;;;5.30;99.90;;;;;;5062995;28;20462;-72
2021/04/30 01:02:48;;;;;;;128.18;65.05;;;5.30;99.90;;;;;;5069325;28;20056;-75
2021/04/30 01:05:16;;;;;;;128.82;62.20;;;5.30;99.90;;;;;;5067825;28;20083;-74
2021/04/30 01:07:43;;;;;;;145.45;66.55;;;5.30;99.90;;;;;;5072745;28;20135;-73
2021/04/30 01:10:11;;;;;;;127.25;63.33;;;5.30;99.90;;;;;;5071315;28;20053;-74
2021/04/30 01:12:37;;;;;;;132.68;64.38;;;5.30;99.90;;;;;;5068046;28;20083;-73
2021/04/30 01:15:05;;;;;;;131.35;66.85;;;5.30;99.90;;;;;;5068646;28;20543;-73
2021/04/30 01:17:34;;;;;;;142.13;65.53;;;5.30;99.90;;;;;;5070403;28;20484;-73
2021/04/30 01:20:01;;;;;;;127.32;64.03;;;5.30;99.90;;;;;;5069681;28;20068;-73
2021/04/30 01:22:44;;;;;;;141.10;68.50;;;5.40;99.90;;;;;;5069357;28;20050;-73
2021/04/30 01:25:17;;;;;;;151.90;67.82;;;5.30;99.90;;;;;;5059657;28;20088;-73
2021/04/30 01:27:44;;;;;;;149.65;68.10;;;5.40;99.90;;;;;;5062137;28;20040;-72
2021/04/30 01:30:17;;;;;;;142.82;67.93;;;5.40;99.90;;;;;;5067317;28;20447;-73
2021/04/30 01:32:44;;;;;;;144.45;68.25;;;5.30;99.90;;;;;;5066799;28;20521;-72
2021/04/30 01:35:11;;;;;;;138.73;67.10;;;5.30;99.90;;;;;;5066800;28;20057;-74
2021/04/30 01:37:38;;;;;;;146.00;69.82;;;5.30;99.90;;;;;;5077966;28;20051;-73
2021/04/30 01:40:15;;;;;;;150.02;69.60;;;5.40;99.90;;;;;;5071452;28;20060;-74
2021/04/30 01:42:59;;;;;;;163.70;76.00;;;5.30;99.90;;;;;;5064265;28;20048;-74
2021/04/30 01:45:26;;;;;;;161.82;75.68;;;5.30;99.90;;;;;;5067617;27;20436;-73
2021/04/30 01:47:53;;;;;;;149.40;70.10;;;5.40;99.90;;;;;;5064912;28;20036;-74
2021/04/30 01:50:20;;;;;;;150.63;71.60;;;5.40;99.90;;;;;;5062425;28;20059;-73
2021/04/30 01:52:46;;;;;;;160.02;73.93;;;5.40;99.90;;;;;;5069705;28;20049;-74
2021/04/30 01:55:13;;;;;;;163.68;75.28;;;5.40;99.90;;;;;;5050014;28;20127;-73
2021/04/30 01:57:49;;;;;;;141.85;67.68;;;5.40;99.90;;;;;;5063033;28;20044;-74
2021/04/30 02:00:23;;;;;;;165.52;73.90;;;5.40;99.90;;;;;;5040264;28;20054;-75
2021/04/30 02:02:51;;;;;;;163.23;72.03;;;5.40;99.90;;;;;;5068739;28;20386;-73
2021/04/30 02:05:19;;;;;;;178.45;78.03;;;5.30;99.90;;;;;;5059359;28;20720;-74
2021/04/30 02:07:46;;;;;;;191.75;77.20;;;5.40;99.90;;;;;;5042136;28;20048;-74
2021/04/30 02:10:23;;;;;;;157.82;72.78;;;5.40;99.90;;;;;;5079138;28;20048;-73
2021/04/30 02:12:51;;;;;;;185.15;76.82;;;5.40;99.90;;;;;;5046672;28;20574;-73
2021/04/30 02:15:20;;;;;;;195.55;80.32;;;5.40;99.90;;;;;;5061513;28;20328;-74
2021/04/30 02:17:47;;;;;;;179.50;79.55;;;5.50;99.90;;;;;;5049917;28;20051;-74
2021/04/30 02:20:14;;;;;;;200.68;80.60;;;5.50;99.90;;;;;;5066129;28;20049;-72
2021/04/30 02:22:41;;;;;;;232.60;88.82;;;5.50;99.90;;;;;;5066049;28;20142;-74
2021/04/30 02:25:09;;;;;;;230.52;88.95;;;5.60;99.90;;;;;;5049413;28;20074;-75
2021/04/30 02:27:36;;;;;;;186.43;78.43;;;5.50;99.90;;;;;;5065044;28;20143;-73
2021/04/30 02:30:04;;;;;;;200.57;77.05;;;5.50;99.90;;;;;;5063119;28;20068;-74
2021/04/30 02:32:32;;;;;;;181.60;75.03;;;5.50;99.90;;;;;;5067163;28;20063;-73
2021/04/30 02:35:00;;;;;;;188.05;78.82;;;5.40;99.90;;;;;;5066702;28;20052;-75
2021/04/30 02:37:27;;;;;;;198.95;80.88;;;5.40;99.90;;;;;;5071828;28;20044;-74
2021/04/30 02:39:54;;;;;;;196.95;79.85;;;5.40;99.90;;;;;;5063798;28;20534;-74
2021/04/30 02:42:21;;;;;;;198.35;81.43;;;5.40;99.90;;;;;;5063507;28;20063;-74
2021/04/30 02:44:48;;;;;;;196.27;79.07;;;5.50;99.90;;;;;;5060795;28;20060;-73
2021/04/30 02:47:15;;;;;;;211.55;83.00;;;5.50;99.90;;;;;;5064026;28;20140;-74
2021/04/30 02:49:46;;;;;;;242.48;86.60;;;5.50;99.90;;;;;;5065684;28;20098;-74
2021/04/30 02:52:15;;;;;;;234.85;88.30;;;5.50;99.90;;;;;;5048037;28;20055;-74
2021/04/30 02:54:42;;;;;;;216.50;85.47;;;5.60;99.90;;;;;;5065744;28;20123;-74
2021/04/30 02:57:12;;;;;;;214.30;83.43;;;5.50;99.90;;;;;;5064717;28;20049;-73
2021/04/30 02:59:38;;;;;;;194.20;77.93;;;5.50;99.90;;;;;;5065876;28;20063;-74
2021/04/30 03:02:05;;;;;;;190.02;77.35;;;5.50;99.90;;;;;;5062684;28;20049;-73
2021/04/30 03:04:32;;;;;;;201.13;78.15;;;5.50;99.90;;;;;;5032282;28;20401;-74
2021/04/30 03:06:58;;;;;;;211.25;78.20;;;5.50;99.90;;;;;;5073578;28;20054;-74
2021/04/30 03:09:25;;;;;;;232.50;81.85;;;5.50;99.90;;;;;;5073863;28;20150;-72
2021/04/30 03:11:51;;;;;;;212.73;80.47;;;5.60;99.90;;;;;;5063231;28;20109;-72
2021/04/30 03:14:17;;;;;;;268.92;86.60;;;5.60;99.90;;;;;;5065411;28;20067;-73
2021/04/30 03:16:44;;;;;;;249.90;83.60;;;5.60;99.90;;;;;;5066589;28;20136;-73
2021/04/30 03:19:10;;;;;;;243.82;82.03;;;5.70;99.90;;;;;;5065834;28;20044;-73
2021/04/30 03:21:37;;;;;;;292.55;91.68;;;5.70;99.90;;;;;;5045874;28;20045;-74
2021/04/30 03:24:05;;;;;;;320.98;97.68;;;5.60;99.90;;;;;;5064493;28;20060;-72
2021/04/30 03:26:32;;;;;;;383.58;104.35;;;5.70;99.90;;;;;;5023824;28;20222;-72
2021/04/30 03:28:59;;;;;;;355.23;96.55;;;5.70;99.90;;;;;;5059930;28;20136;-74
2021/04/30 03:31:26;;;;;;;255.43;88.32;;;5.70;99.90;;;;;;5066589;28;20052;-71
2021/04/30 03:33:53;;;;;;;316.58;95.70;;;5.70;99.90;;;;;;5065284;28;20115;-74
2021/04/30 03:36:20;;;;;;;263.92;89.13;;;5.70;99.90;;;;;;5066199;28;20408;-73
2021/04/30 03:38:47;;;;;;;259.48;87.82;;;5.70;99.90;;;;;;5062567;28;20055;-73
2021/04/30 03:41:16;;;;;;;200.88;76.05;;;5.70;99.90;;;;;;5042310;28;20041;-73
2021/04/30 03:43:43;;;;;;;247.77;84.97;;;5.70;99.90;;;;;;5064062;28;20283;-73
2021/04/30 03:46:10;;;;;;;149.60;63.90;;;5.70;99.90;;;;;;5060681;28;20136;-74
2021/04/30 03:48:38;;;;;;;178.32;70.43;;;5.70;99.90;;;;;;5063807;28;20048;-73
2021/04/30 03:51:04;;;;;;;211.93;76.13;;;5.70;99.90;;;;;;5065183;28;20128;-73
2021/04/30 03:53:31;;;;;;;222.30;77.78;;;5.70;99.90;;;;;;5065276;28;20066;-74
2021/04/30 03:55:57;;;;;;;190.70;72.80;;;5.80;99.90;;;;;;5072242;28;20468;-75
2021/04/30 03:58:23;;;;;;;216.57;73.07;;;5.80;99.90;;;;;;5064287;28;20038;-74
2021/04/30 04:00:50;;;;;;;223.65;78.13;;;5.80;99.90;;;;;;5064234;28;20040;-75
2021/04/30 04:03:17;;;;;;;230.27;80.57;;;5.90;99.90;;;;;;5064001;28;20131;-74
2021/04/30 04:05:43;;;;;;;225.48;76.63;;;5.90;99.90;;;;;;5064705;28;20051;-73
2021/04/30 04:08:09;;;;;;;211.55;75.70;;;5.90;99.90;;;;;;5074845;28;20051;-72
2021/04/30 04:10:36;;;;;;;219.05;77.15;;;6.00;99.90;;;;;;5069226;28;20115;-75
2021/04/30 04:13:17;;;;;;;206.07;71.63;;;6.00;99.90;;;;;;5065777;28;20044;-75
2021/04/30 04:15:44;;;;;;;162.88;63.80;;;6.00;99.90;;;;;;5064226;28;20053;-73
2021/04/30 04:18:10;;;;;;;203.35;74.57;;;5.90;99.90;;;;;;5062662;28;20465;-75
2021/04/30 04:20:38;;;;;;;171.50;69.65;;;6.00;99.90;;;;;;5044160;28;20060;-73
2021/04/30 04:23:04;;;;;;;166.98;66.38;;;6.00;99.90;;;;;;5063001;28;20682;-74
2021/04/30 04:25:30;;;;;;;163.40;66.28;;;6.00;99.90;;;;;;5066229;28;20067;-73
2021/04/30 04:27:57;;;;;;;147.18;60.20;;;6.00;99.90;;;;;;5066992;28;20667;-73
2021/04/30 04:30:24;;;;;;;135.02;57.55;;;5.90;99.90;;;;;;5065955;28;20068;-72
2021/04/30 04:32:51;;;;;;;148.48;59.35;;;5.90;99.90;;;;;;5050288;28;20040;-74
2021/04/30 04:35:18;;;;;;;155.10;62.20;;;5.90;99.90;;;;;;5064778;28;20048;-72
2021/04/30 04:37:45;;;;;;;167.15;66.75;;;5.90;99.90;;;;;;5073540;28;20058;-74
2021/04/30 04:40:13;;;;;;;194.55;72.38;;;5.90;99.90;;;;;;5069123;28;20229;-74
2021/04/30 04:42:39;;;;;;;168.63;68.03;;;5.90;99.90;;;;;;5069001;28;20058;-75
2021/04/30 04:45:07;;;;;;;208.77;73.53;;;5.90;99.90;;;;;;5065540;28;20588;-72
2021/04/30 04:47:33;;;;;;;170.95;66.50;;;6.00;99.90;;;;;;5066690;28;20072;-75
2021/04/30 04:49:59;;;;;;;186.40;68.43;;;5.90;99.90;;;;;;5066608;28;20437;-74
2021/04/30 04:52:26;;;;;;;159.02;67.20;;;5.90;99.90;;;;;;5068543;28;20436;-75
2021/04/30 04:54:52;;;;;;;155.82;62.72;;;5.90;99.90;;;;;;5067514;28;20124;-73
2021/04/30 04:57:18;;;;;;;175.75;69.53;;;5.90;99.90;;;;;;5072091;28;20485;-73
2021/04/30 04:59:45;;;;;;;181.65;71.57;;;5.90;99.90;;;;;;5067173;28;20056;-74
2021/04/30 05:02:11;;;;;;;204.07;75.97;;;5.90;99.90;;;;;;5049575;28;20135;-74
2021/04/30 05:04:39;;;;;;;218.75;77.60;;;6.00;99.90;;;;;;5067184;28;20147;-74
2021/04/30 05:07:06;;;;;;;259.08;85.88;;;6.00;99.90;;;;;;5066427;28;20144;-73
2021/04/30 05:09:32;;;;;;;251.30;83.70;;;6.00;99.90;;;;;;5061644;28;20044;-74
2021/04/30 05:11:58;;;;;;;254.07;85.80;;;6.10;99.90;;;;;;5086299;28;20054;-74
2021/04/30 05:14:25;;;;;;;319.40;94.97;;;6.00;99.90;;;;;;5087329;28;20048;-73
2021/04/30 05:17:05;;;;;;;320.33;93.97;;;6.00;99.90;;;;;;5076611;28;20220;-74
2021/04/30 05:19:31;;;;;;;371.05;100.43;;;6.10;99.90;;;;;;5067051;28;20070;-74
2021/04/30 05:21:58;;;;;;;426.05;102.15;;;6.10;99.90;;;;;;5066594;28;20058;-74
2021/04/30 05:24:25;;;;;;;593.60;119.57;;;6.10;99.90;;;;;;5067412;28;20068;-73
2021/04/30 05:26:52;;;;;;;717.10;138.50;;;6.10;99.90;;;;;;5074189;28;20061;-73
2021/04/30 05:29:19;;;;;;;655.13;127.85;;;6.00;99.90;;;;;;5071304;28;20045;-73
2021/04/30 05:31:45;;;;;;;763.63;137.98;;;6.10;99.90;;;;;;5067661;28;20062;-73
2021/04/30 05:34:11;;;;;;;656.75;128.30;;;6.10;99.90;;;;;;5066082;28;20080;-73
2021/04/30 05:36:38;;;;;;;778.78;140.82;;;6.10;99.90;;;;;;5067063;28;20079;-73
2021/04/30 05:39:05;;;;;;;850.05;142.63;;;6.10;99.90;;;;;;5075859;28;20092;-74
2021/04/30 05:41:32;;;;;;;806.20;141.45;;;6.00;99.90;;;;;;5088074;28;20113;-74
2021/04/30 05:43:58;;;;;;;750.45;133.18;;;6.00;99.90;;;;;;5051873;28;20091;-73
2021/04/30 05:46:24;;;;;;;798.90;146.80;;;6.10;99.90;;;;;;5072426;28;20072;-74
2021/04/30 05:48:51;;;;;;;876.30;147.90;;;6.00;99.90;;;;;;5070725;28;20139;-73
2021/04/30 05:51:17;;;;;;;889.45;152.68;;;6.10;99.90;;;;;;5067164;28;20336;-74
2021/04/30 05:53:44;;;;;;;760.50;142.38;;;6.10;99.90;;;;;;5049398;28;20147;-74
2021/04/30 05:56:27;;;;;;;1239.85;192.32;;;6.10;99.90;;;;;;5061474;28;20144;-72
2021/04/30 05:58:53;;;;;;;1047.22;169.82;;;6.20;99.90;;;;;;5076488;28;20499;-72
2021/04/30 06:01:19;;;;;;;882.35;146.80;;;6.20;99.90;;;;;;5082864;28;20131;-72
2021/04/30 06:03:45;;;;;;;1111.30;174.50;;;6.20;99.90;;;;;;5076178;28;20060;-74
2021/04/30 06:06:12;;;;;;;937.38;161.40;;;6.20;99.90;;;;;;5047928;28;20062;-73
2021/04/30 06:08:38;;;;;;;1196.65;185.40;;;6.20;99.90;;;;;;5075503;28;20050;-73
2021/04/30 06:11:04;;;;;;;1055.25;171.40;;;6.20;99.90;;;;;;5056396;28;20139;-73
2021/04/30 06:13:31;;;;;;;1246.18;189.95;;;6.10;99.90;;;;;;5070815;28;20052;-72
2021/04/30 06:15:57;;;;;;;1259.45;186.40;;;6.20;99.90;;;;;;5068896;28;20052;-72
2021/04/30 06:18:24;;;;;;;1130.35;174.90;;;6.10;99.90;;;;;;5070548;28;20048;-73
2021/04/30 06:20:50;;;;;;;1236.15;180.75;;;6.10;99.90;;;;;;5045495;28;20068;-72
2021/04/30 06:23:17;;;;;;;1443.72;210.50;;;6.10;99.90;;;;;;5055816;28;20079;-73
2021/04/30 06:25:43;;;;;;;1202.85;184.02;;;6.20;99.90;;;;;;5063768;28;20139;-73
2021/04/30 06:28:10;;;;;;;1154.13;183.25;;;6.20;99.90;;;;;;5063819;28;20052;-72
2021/04/30 06:30:36;;;;;;;1243.32;185.57;;;6.20;99.90;;;;;;5063375;28;20472;-72
2021/04/30 06:33:06;;;;;;;1166.07;176.88;;;6.30;99.90;;;;;;5054181;28;20060;-73
2021/04/30 06:35:33;;;;;;;1226.72;189.68;;;6.30;99.90;;;;;;5065445;28;20055;-73
2021/04/30 06:38:00;;;;;;;1176.82;184.80;;;6.30;99.90;;;;;;5069434;28;20548;-72
2021/04/30 06:40:26;;;;;;;1414.55;211.52;;;6.30;99.90;;;;;;5070376;28;20547;-73
2021/04/30 06:42:52;;;;;;;1245.75;185.48;;;6.30;99.90;;;;;;5064382;28;20063;-72
2021/04/30 06:45:19;;;;;;;1076.15;177.25;;;6.20;99.90;;;;;;5064790;27;20054;-73
2021/04/30 06:47:45;;;;;;;1158.47;187.32;;;6.20;99.90;;;;;;5066875;28;20067;-73
2021/04/30 06:50:12;;;;;;;1273.43;191.75;;;6.20;99.90;;;;;;5066425;28;20139;-72
2021/04/30 06:52:39;;;;;;;1001.15;159.30;;;6.30;99.90;;;;;;5064101;28;20223;-72
2021/04/30 06:55:06;;;;;;;554.33;115.72;;;6.30;99.90;;;;;;5062313;28;20040;-73
2021/04/30 06:57:41;;;;;;;907.35;155.98;;;6.30;99.90;;;;;;5046230;28;20041;-73
2021/04/30 07:00:09;;;;;;;933.53;158.00;;;6.40;99.90;;;;;;5043960;28;20094;-72
2021/04/30 07:02:36;;;;;;;1081.03;180.85;;;6.40;99.90;;;;;;5044252;28;20140;-73
2021/04/30 07:05:03;;;;;;;1045.30;174.23;;;6.50;99.90;;;;;;5056173;28;20094;-73
2021/04/30 07:07:31;;;;;;;1096.82;180.30;;;6.50;99.90;;;;;;5073696;28;20043;-73
2021/04/30 07:09:58;;;;;;;1100.68;182.50;;;6.60;99.90;;;;;;5059637;28;20044;-73
2021/04/30 07:12:24;;;;;;;958.15;163.60;;;6.60;99.90;;;;;;5085753;28;20048;-72
2021/04/30 07:14:50;;;;;;;890.97;157.93;;;6.60;99.90;;;;;;5076259;28;20584;-72
2021/04/30 07:17:16;;;;;;;851.13;154.02;;;6.50;99.90;;;;;;5065703;28;20079;-73
2021/04/30 07:19:43;;;;;;;848.15;149.13;;;6.50;99.90;;;;;;5066294;28;20165;-74
2021/04/30 07:22:11;;;;;;;857.38;152.27;;;6.40;99.90;;;;;;5065424;28;20067;-73
2021/04/30 07:24:39;;;;;;;1143.30;182.07;;;6.40;99.90;;;;;;5057541;28;20047;-73
2021/04/30 07:27:06;;;;;;;842.90;156.45;;;6.50;99.90;;;;;;5045502;28;20429;-73
2021/04/30 07:29:35;;;;;;;877.38;158.95;;;6.50;99.90;;;;;;5044456;28;20140;-73
2021/04/30 07:32:02;;;;;;;401.55;110.38;;;6.60;99.90;;;;;;5044176;28;20347;-73
2021/04/30 07:34:37;;;;;;;381.25;107.35;;;6.50;99.90;;;;;;5059273;28;20068;-73
2021/04/30 07:37:05;;;;;;;499.02;115.97;;;6.60;99.90;;;;;;5068033;28;20040;-74
2021/04/30 07:39:32;;;;;;;669.47;138.35;;;6.50;99.90;;;;;;5071903;28;20062;-73
2021/04/30 07:42:00;;;;;;;800.58;144.65;;;6.50;99.90;;;;;;5063927;28;20160;-74
2021/04/30 07:44:27;;;;;;;892.95;156.23;;;6.50;99.90;;;;;;5046967;28;20053;-74
2021/04/30 07:46:54;;;;;;;922.92;160.73;;;6.40;99.90;;;;;;5064285;28;20049;-74
2021/04/30 07:49:20;;;;;;;609.63;132.85;;;6.50;99.90;;;;;;5066048;28;20110;-74
2021/04/30 07:51:47;;;;;;;587.15;129.80;;;6.60;99.90;;;;;;5064117;28;20451;-75
2021/04/30 07:54:13;;;;;;;461.52;115.85;;;6.70;99.90;;;;;;5048702;28;20553;-74
2021/04/30 07:56:39;;;;;;;339.90;101.72;;;6.70;99.90;;;;;;5043595;28;20478;-74
2021/04/30 07:59:06;;;;;;;290.88;96.78;;;6.70;99.90;;;;;;5044739;28;20139;-74
2021/04/30 08:01:33;;;;;;;244.77;89.38;;;6.70;99.90;;;;;;5048105;28;20053;-74
2021/04/30 08:03:59;;;;;;;476.85;116.65;;;6.80;99.90;;;;;;5062528;28;20572;-74
2021/04/30 08:06:25;;;;;;;392.70;111.35;;;6.80;99.90;;;;;;5038731;28;20054;-74
2021/04/30 08:08:52;;;;;;;408.92;111.60;;;6.80;99.90;;;;;;5076438;28;20056;-74
2021/04/30 08:11:18;;;;;;;357.58;105.40;;;6.80;99.90;;;;;;5068019;28;20139;-74
2021/04/30 08:13:44;;;;;;;256.23;87.32;;;6.80;99.90;;;;;;5067579;28;20052;-74
2021/04/30 08:16:11;;;;;;;261.25;93.38;;;6.70;99.90;;;;;;5063836;28;20298;-74
2021/04/30 08:18:38;;;;;;;237.38;85.78;;;6.70;99.90;;;;;;5067074;28;20045;-74
2021/04/30 08:21:05;;;;;;;273.00;96.53;;;6.80;99.90;;;;;;5066811;28;20140;-74
2021/04/30 08:23:32;;;;;;;266.45;90.15;;;6.80;99.90;;;;;;5068899;28;20131;-74
2021/04/30 08:25:59;;;;;;;250.00;90.55;;;6.90;99.90;;;;;;5069334;28;20044;-74
2021/04/30 08:28:27;;;;;;;267.08;92.30;;;7.00;99.90;;;;;;5069164;28;20135;-74
2021/04/30 08:30:54;;;;;;;221.20;87.05;;;7.00;99.90;;;;;;5066463;28;20243;-74
2021/04/30 08:33:24;;;;;;;223.40;88.38;;;7.00;99.90;;;;;;5058223;28;20036;-74
2021/04/30 08:35:52;;;;;;;226.93;86.38;;;7.00;99.90;;;;;;5066143;28;20041;-74
2021/04/30 08:38:18;;;;;;;235.27;88.70;;;7.10;99.90;;;;;;5075173;28;20546;-74
2021/04/30 08:40:47;;;;;;;220.70;84.47;;;7.20;99.90;;;;;;5069409;28;20044;-74
2021/04/30 08:43:19;;;;;;;196.77;82.57;;;7.30;99.90;;;;;;5061892;28;20040;-74
2021/04/30 08:45:46;;;;;;;167.93;76.18;;;7.40;99.90;;;;;;5050803;28;20064;-74
2021/04/30 08:48:14;;;;;;;174.20;74.60;;;7.20;99.90;;;;;;5066911;28;20055;-74
2021/04/30 08:50:42;;;;;;;163.07;73.72;;;7.10;99.90;;;;;;5058066;28;20388;-74
2021/04/30 08:53:08;;;;;;;157.20;70.40;;;7.10;99.90;;;;;;5065399;28;20076;-74
2021/04/30 08:55:35;;;;;;;181.27;79.25;;;7.10;99.90;;;;;;5063070;28;20040;-74
2021/04/30 08:58:05;;;;;;;158.27;71.20;;;7.10;99.90;;;;;;5081735;28;20420;-74
2021/04/30 09:00:31;;;;;;;153.10;72.72;;;7.10;99.90;;;;;;5067787;28;20068;-75
2021/04/30 09:02:59;;;;;;;136.73;64.07;;;7.30;99.90;;;;;;5067494;28;20087;-74
2021/04/30 09:05:31;;;;;;;152.27;74.45;;;7.40;99.90;;;;;;5064455;28;20044;-74
2021/04/30 09:07:59;;;;;;;139.07;65.57;;;7.40;99.90;;;;;;5068549;28;20551;-74
2021/04/30 09:10:28;;;;;;;144.23;65.53;;;7.40;99.90;;;;;;5049803;28;20044;-74
2021/04/30 09:13:03;;;;;;;125.38;59.70;;;7.50;99.90;;;;;;5067117;28;20102;-74
2021/04/30 09:15:29;;;;;;;128.52;61.45;;;7.60;99.90;;;;;;5047423;28;20052;-74
2021/04/30 09:18:16;;;;;;;102.22;52.58;;;7.70;99.90;;;;;;5063885;28;20077;-74
2021/04/30 09:20:44;;;;;;;108.10;57.13;;;7.80;99.90;;;;;;5059885;28;20056;-74
2021/04/30 09:23:30;;;;;;;107.00;54.17;;;7.90;99.90;;;;;;5064652;28;20135;-74
2021/04/30 09:25:56;;;;;;;96.57;55.50;;;8.10;99.90;;;;;;5065788;28;20063;-74
2021/04/30 09:28:22;;;;;;;94.93;51.78;;;8.20;99.90;;;;;;5067860;28;20067;-74
2021/04/30 09:30:49;;;;;;;88.82;50.10;;;8.30;99.90;;;;;;5067324;28;20048;-74
2021/04/30 09:33:20;;;;;;;95.53;51.53;;;8.50;99.90;;;;;;5050247;28;20044;-74
2021/04/30 09:35:55;;;;;;;88.20;49.47;;;8.50;99.90;;;;;;5066385;28;20045;-75
2021/04/30 09:38:32;;;;;;;;;;;8.70;99.90;;;;;;5064385;28;20141;-74
2021/04/30 09:41:02;;;;;;;83.72;47.78;;;8.80;99.90;;;;;;5045391;28;19921;-74
2021/04/30 09:43:45;;;;;;;84.55;48.20;;;8.90;99.90;;;;;;5061943;28;20109;-74
2021/04/30 09:46:26;;;;;;;79.15;46.10;;;9.00;99.90;;;;;;5066795;28;20076;-74
2021/04/30 09:49:03;;;;;;;87.85;50.75;;;8.90;99.90;;;;;;5060072;28;20654;-74
2021/04/30 09:51:41;;;;;;;89.70;52.08;;;8.80;99.90;;;;;;5066208;28;20067;-74
2021/04/30 09:54:27;;;;;;;81.80;46.33;;;8.80;99.90;;;;;;5067286;28;20041;-74
2021/04/30 09:57:12;;;;;;;86.65;50.83;;;8.70;99.90;;;;;;5070551;28;20083;-75
2021/04/30 09:59:40;;;;;;;83.03;48.35;;;8.70;99.90;;;;;;5083111;28;20040;-74
2021/04/30 10:02:10;;;;;;;89.32;49.78;;;8.70;99.90;;;;;;5076135;28;20098;-74
2021/04/30 10:04:39;;;;;;;80.05;45.97;;;8.80;99.90;;;;;;5067286;28;20325;-74
2021/04/30 10:07:11;;;;;;;86.10;47.67;;;8.50;99.90;;;;;;5066587;28;20521;-74
2021/04/30 10:09:39;;;;;;;81.38;46.72;;;8.40;99.90;;;;;;5067271;28;20052;-73
2021/04/30 10:12:21;;;;;;;84.40;49.30;;;8.40;99.90;;;;;;5075845;28;20139;-73
2021/04/30 10:14:48;;;;;;;80.93;46.13;;;8.40;99.90;;;;;;5084235;28;20113;-73
2021/04/30 10:17:15;;;;;;;77.53;46.88;;;8.40;99.90;;;;;;5084897;28;20617;-73
2021/04/30 10:19:43;;;;;;;81.60;44.42;;;8.50;99.90;;;;;;5066065;28;20045;-74
2021/04/30 10:22:27;;;;;;;84.95;45.60;;;8.50;99.90;;;;;;5066753;28;20116;-74
2021/04/30 10:25:17;;;;;;;84.97;48.45;;;8.50;99.90;;;;;;5051569;28;20044;-73
2021/04/30 10:27:48;;;;;;;79.32;46.53;;;8.60;99.90;;;;;;5067602;28;20048;-73
2021/04/30 10:30:30;;;;;;;79.82;47.55;;;8.60;99.90;;;;;;5069837;28;20048;-73
2021/04/30 10:33:27;;;;;;;75.13;43.30;;;8.50;99.90;;;;;;5064496;28;20491;-73
2021/04/30 10:36:15;;;;;;;87.03;45.60;;;8.40;99.90;;;;;;5069032;28;20063;-73
2021/04/30 10:38:47;;;;;;;85.72;46.28;;;8.40;99.90;;;;;;5067478;28;20056;-74
2021/04/30 10:41:14;;;;;;;79.80;45.08;;;8.40;99.90;;;;;;5063994;28;20044;-73
2021/04/30 10:43:40;;;;;;;83.07;47.13;;;8.40;99.90;;;;;;5066417;28;20095;-73
2021/04/30 10:46:21;;;;;;;81.47;45.50;;;8.40;99.90;;;;;;5065349;28;20532;-74
2021/04/30 10:49:03;;;;;;;82.22;46.55;;;8.50;99.90;;;;;;5048267;28;20057;-73
2021/04/30 10:51:31;;;;;;;79.00;45.00;;;8.50;99.90;;;;;;5065509;28;20049;-74
2021/04/30 10:54:22;;;;;;;83.47;45.88;;;8.50;99.90;;;;;;5066839;28;20469;-74
2021/04/30 10:57:00;;;;;;;85.78;48.70;;;8.60;99.90;;;;;;5048003;28;20041;-73
2021/04/30 10:59:51;;;;;;;85.70;48.63;;;8.60;99.90;;;;;;5064716;28;20155;-74
2021/04/30 11:02:21;;;;;;;84.38;46.90;;;8.70;99.90;;;;;;5065004;28;20080;-73
2021/04/30 11:05:06;;;;;;;79.35;45.40;;;8.70;99.90;;;;;;5063147;28;20053;-74
2021/04/30 11:07:51;;;;;;;79.43;46.50;;;8.70;99.90;;;;;;5065782;28;20558;-74
2021/04/30 11:10:20;;;;;;;74.80;42.58;;;8.80;99.90;;;;;;5066049;28;20053;-75
2021/04/30 11:13:06;;;;;;;78.68;47.47;;;8.90;99.90;;;;;;5064796;28;20596;-73
2021/04/30 11:15:48;;;;;;;64.88;39.63;;;8.90;99.90;;;;;;5063432;28;20451;-73
2021/04/30 11:18:19;;;;;;;72.63;43.47;;;9.00;99.90;;;;;;5073222;28;20051;-74
2021/04/30 11:21:09;;;;;;;77.78;45.15;;;9.00;99.90;;;;;;5085468;28;20040;-73
2021/04/30 11:23:35;;;;;;;74.72;45.15;;;9.00;99.90;;;;;;5070844;28;20129;-75
2021/04/30 11:26:07;;;;;;;89.32;46.97;;;9.00;99.90;;;;;;5063956;28;20091;-75
2021/04/30 11:28:33;;;;;;;80.72;47.95;;;9.00;99.90;;;;;;5064007;28;20505;-72
2021/04/30 11:31:14;;;;;;;72.70;46.38;;;8.90;99.90;;;;;;5069280;28;20343;-73
2021/04/30 11:33:42;;;;;;;88.60;49.63;;;8.90;99.90;;;;;;5069046;28;20139;-73
2021/04/30 11:36:11;;;;;;;87.15;51.13;;;8.90;99.90;;;;;;5061317;28;20059;-74
2021/04/30 11:38:39;;;;;;;77.22;44.33;;;9.00;99.90;;;;;;5072875;28;20063;-73
2021/04/30 11:41:07;;;;;;;75.65;43.95;;;9.00;99.90;;;;;;5065229;28;20053;-74
2021/04/30 11:43:34;;;;;;;77.35;45.28;;;8.90;99.90;;;;;;5066129;28;20580;-74
2021/04/30 11:46:00;;;;;;;78.93;46.22;;;8.70;99.90;;;;;;5064894;27;20056;-74
2021/04/30 11:48:29;;;;;;;79.07;45.90;;;8.70;99.90;;;;;;5063969;28;20543;-75
2021/04/30 11:51:03;;;;;;;82.82;47.05;;;8.80;99.90;;;;;;5054588;28;20523;-75
2021/04/30 11:53:31;;;;;;;81.85;45.88;;;8.80;99.90;;;;;;5079677;28;20493;-73
2021/04/30 11:55:58;;;;;;;80.68;46.80;;;8.80;99.90;;;;;;5078808;27;20052;-74
2021/04/30 11:58:44;;;;;;;82.40;46.85;;;8.80;99.90;;;;;;5052091;28;20087;-74
2021/04/30 12:01:15;;;;;;;84.88;47.30;;;8.80;99.90;;;;;;5067774;28;20412;-74
2021/04/30 12:03:45;;;;;;;77.32;46.03;;;8.90;99.90;;;;;;5081430;28;20110;-73
2021/04/30 12:06:15;;;;;;;80.40;44.72;;;8.90;99.90;;;;;;5065019;28;20674;-74
2021/04/30 12:08:42;;;;;;;90.75;50.95;;;9.00;99.90;;;;;;5065158;28;20052;-74
2021/04/30 12:11:23;;;;;;;85.07;47.00;;;9.00;99.90;;;;;;5063421;28;20064;-75
2021/04/30 12:13:54;;;;;;;78.05;46.63;;;9.10;99.90;;;;;;5066143;28;20060;-73
2021/04/30 12:16:21;;;;;;;78.13;45.85;;;9.10;99.90;;;;;;5061939;28;20056;-75
2021/04/30 12:18:49;;;;;;;77.40;46.33;;;9.20;99.90;;;;;;5061927;28;20412;-75
2021/04/30 12:21:25;;;;;;;79.72;46.30;;;9.40;99.90;;;;;;5064910;28;20052;-73
2021/04/30 12:23:52;;;;;;;78.88;47.33;;;9.40;99.90;;;;;;5064547;28;20140;-74
2021/04/30 12:26:25;;;;;;;75.15;44.08;;;9.50;99.90;;;;;;5060978;28;20048;-74
2021/04/30 12:28:54;;;;;;;77.25;44.42;;;9.40;99.90;;;;;;5063512;28;20062;-74
2021/04/30 12:31:23;;;;;;;72.03;44.08;;;9.40;99.90;;;;;;5076837;28;20052;-73
2021/04/30 12:33:52;;;;;;;77.55;44.00;;;9.50;99.90;;;;;;5072708;28;20044;-74
2021/04/30 12:36:22;;;;;;;80.22;46.92;;;9.30;99.90;;;;;;5046133;28;20040;-74